Time;durP1;ratioP1;P1;durP2;ratioP2;P2;SDS_P1;SDS_P2;PMS_P1;PMS_P2;Temp;Humidity;BMP_temperature;BMP_pressure;BME280_temperature;BME280_humidity;BME280_pressure;Samples;Min_cycle;Max_cycle;Signal;HPM_P1;HPM_P2
2024/03/04 00:01:30;;;;;;;6.55;3.30;;;;;;;;;;7587334;19;20026;-76
2024/03/04 00:04:03;;;;;;;7.93;3.17;;;;;;;;;;7590024;19;20052;-76
2024/03/04 00:06:36;;;;;;;5.72;2.85;;;;;;;;;;7585570;19;20015;-75
2024/03/04 00:09:08;;;;;;;7.15;2.92;;;;;;;;;;7582048;19;20021;-75
2024/03/04 00:11:41;;;;;;;5.45;2.80;;;;;;;;;;7574755;19;20026;-76
2024/03/04 00:14:14;;;;;;;9.65;3.40;;;;;;;;;;7594547;19;20018;-75
2024/03/04 00:16:48;;;;;;;5.22;3.20;;;;;;;;;;7574294;19;20011;-75
2024/03/04 00:19:21;;;;;;;7.00;3.50;;;;;;;;;;7583063;19;20018;-75
2024/03/04 00:21:56;;;;;;;5.10;2.83;;;;;;;;;;7579777;19;20659;-75
2024/03/04 00:24:29;;;;;;;5.43;3.58;;;;;;;;;;7584300;19;20030;-77
2024/03/04 00:27:02;;;;;;;6.50;3.60;;;;;;;;;;7594650;19;20749;-75
2024/03/04 00:29:35;;;;;;;4.35;3.33;;;;;;;;;;7590264;19;20584;-76
2024/03/04 00:32:08;;;;;;;5.55;3.10;;;;;;;;;;7590072;19;20023;-75
2024/03/04 00:34:41;;;;;;;10.15;3.30;;;;;;;;;;7582455;19;20014;-74
2024/03/04 00:37:14;;;;;;;6.37;3.40;;;;;;;;;;7592192;19;20018;-74
2024/03/04 00:39:46;;;;;;;6.20;3.90;;;;;;;;;;7578186;19;20010;-75
2024/03/04 00:42:19;;;;;;;6.22;3.80;;;;;;;;;;7588185;19;20295;-74
2024/03/04 00:44:55;;;;;;;4.80;3.17;;;;;;;;;;7595327;19;20852;-75
2024/03/04 00:47:28;;;;;;;6.65;3.50;;;;;;;;;;7601006;19;20023;-74
2024/03/04 00:50:03;;;;;;;9.02;3.55;;;;;;;;;;7588984;19;20408;-75
2024/03/04 00:52:37;;;;;;;8.02;3.70;;;;;;;;;;7575057;19;20015;-75
2024/03/04 00:55:10;;;;;;;9.05;3.80;;;;;;;;;;7596475;19;20011;-77
2024/03/04 00:57:43;;;;;;;6.57;3.60;;;;;;;;;;7604088;19;20018;-77
2024/03/04 01:00:17;;;;;;;7.25;3.80;;;;;;;;;;7595921;19;20018;-74
2024/03/04 01:02:53;;;;;;;7.78;3.20;;;;;;;;;;7597615;19;20021;-74
2024/03/04 01:05:26;;;;;;;8.75;3.92;;;;;;;;;;7574983;19;20494;-76
2024/03/04 01:07:58;;;;;;;6.28;3.65;;;;;;;;;;7550010;19;20019;-74
2024/03/04 01:10:32;;;;;;;6.77;3.53;;;;;;;;;;7577029;19;20022;-74
2024/03/04 01:13:05;;;;;;;6.15;3.75;;;;;;;;;;7596611;19;20351;-76
2024/03/04 01:15:38;;;;;;;4.73;3.17;;;;;;;;;;7575461;19;20437;-74
2024/03/04 01:18:11;;;;;;;9.00;4.35;;;;;;;;;;7598809;19;20056;-75
2024/03/04 01:20:45;;;;;;;9.20;3.63;;;;;;;;;;7575243;19;20561;-74
2024/03/04 01:23:17;;;;;;;7.10;3.17;;;;;;;;;;7584636;19;20027;-74
2024/03/04 01:25:50;;;;;;;5.25;3.38;;;;;;;;;;7597815;19;20022;-76
2024/03/04 01:28:23;;;;;;;5.22;3.80;;;;;;;;;;7600688;19;20587;-76
2024/03/04 01:30:56;;;;;;;9.60;3.55;;;;;;;;;;7608022;19;20032;-77
2024/03/04 01:33:29;;;;;;;7.22;3.90;;;;;;;;;;7607763;19;20014;-76
2024/03/04 01:36:04;;;;;;;12.63;6.50;;;;;;;;;;7604069;19;20018;-76
2024/03/04 01:38:37;;;;;;;13.52;6.68;;;;;;;;;;7539990;19;20307;-76
2024/03/04 01:41:11;;;;;;;14.15;7.07;;;;;;;;;;7577917;19;20582;-76
2024/03/04 01:43:43;;;;;;;13.18;5.88;;;;;;;;;;7589810;19;20413;-74
2024/03/04 01:46:17;;;;;;;10.50;5.47;;;;;;;;;;7592005;19;20021;-76
2024/03/04 01:48:50;;;;;;;7.60;4.15;;;;;;;;;;7581568;19;20137;-76
2024/03/04 01:51:24;;;;;;;8.15;4.63;;;;;;;;;;7598410;19;20019;-77
2024/03/04 01:53:57;;;;;;;11.57;4.65;;;;;;;;;;7590806;19;20014;-76
2024/03/04 01:56:30;;;;;;;9.75;5.10;;;;;;;;;;7586056;19;21233;-75
2024/03/04 01:59:03;;;;;;;7.28;4.40;;;;;;;;;;7598254;19;20014;-76
2024/03/04 02:01:36;;;;;;;11.63;5.43;;;;;;;;;;7595284;19;20026;-76
2024/03/04 02:04:09;;;;;;;9.82;4.95;;;;;;;;;;7579321;19;20827;-75
2024/03/04 02:06:42;;;;;;;9.07;4.90;;;;;;;;;;7591891;19;20040;-77
2024/03/04 02:09:15;;;;;;;11.57;4.83;;;;;;;;;;7595544;19;21199;-75
2024/03/04 02:11:48;;;;;;;9.68;4.07;;;;;;;;;;7592212;19;20038;-77
2024/03/04 02:14:22;;;;;;;10.20;4.25;;;;;;;;;;7591896;19;20109;-76
2024/03/04 02:16:55;;;;;;;10.82;4.55;;;;;;;;;;7588340;19;22283;-75
2024/03/04 02:19:27;;;;;;;11.68;5.03;;;;;;;;;;7581494;19;20021;-76
2024/03/04 02:22:01;;;;;;;8.52;4.63;;;;;;;;;;7582674;19;20032;-75
2024/03/04 02:24:35;;;;;;;12.82;4.63;;;;;;;;;;7590876;19;22404;-76
2024/03/04 02:27:08;;;;;;;10.05;4.72;;;;;;;;;;7597379;19;20015;-75
2024/03/04 02:29:41;;;;;;;11.90;5.13;;;;;;;;;;7591322;19;20025;-76
2024/03/04 02:32:13;;;;;;;8.10;4.28;;;;;;;;;;7593861;19;20019;-74
2024/03/04 02:34:47;;;;;;;7.82;4.30;;;12.90;93.20;;;;;;7578361;19;20021;-77
2024/03/04 02:37:19;;;;;;;6.50;4.18;;;4.80;94.40;;;;;;7593951;19;20023;-74
2024/03/04 02:39:55;;;;;;;9.77;4.63;;;4.40;94.00;;;;;;7584127;19;20019;-77
2024/03/04 02:42:28;;;;;;;9.70;4.00;;;4.30;94.10;;;;;;7593327;19;20046;-77
2024/03/04 02:45:00;;;;;;;10.13;4.07;;;4.30;93.90;;;;;;7571357;19;20432;-75
2024/03/04 02:47:32;;;;;;;11.00;3.92;;;4.40;94.00;;;;;;7592820;19;20018;-76
2024/03/04 02:50:07;;;;;;;12.82;4.20;;;4.20;94.40;;;;;;7585441;19;20014;-76
2024/03/04 02:52:40;;;;;;;6.05;3.70;;;4.20;94.80;;;;;;7578599;19;20373;-77
2024/03/04 02:55:12;;;;;;;10.35;4.20;;;4.30;95.20;;;;;;7600280;19;20026;-76
2024/03/04 02:57:44;;;;;;;10.20;4.38;;;4.20;95.00;;;;;;7590094;19;20014;-76
2024/03/04 03:00:17;;;;;;;7.07;4.13;;;4.20;95.50;;;;;;7582619;19;20499;-76
2024/03/04 03:02:49;;;;;;;7.18;3.40;;;4.20;95.80;;;;;;7591879;19;20014;-77
2024/03/04 03:05:21;;;;;;;10.07;4.03;;;4.20;95.60;;;;;;7584042;19;20162;-76
2024/03/04 03:07:54;;;;;;;7.88;3.65;;;4.20;95.50;;;;;;7593975;19;20009;-76
2024/03/04 03:10:28;;;;;;;7.50;3.70;;;4.30;95.20;;;;;;7574410;19;20022;-76
2024/03/04 03:13:01;;;;;;;9.10;3.78;;;4.30;95.20;;;;;;7589226;19;20014;-76
2024/03/04 03:15:34;;;;;;;9.63;4.03;;;4.20;95.30;;;;;;7572647;19;20548;-76
2024/03/04 03:18:08;;;;;;;9.90;3.90;;;4.10;95.60;;;;;;7596732;19;20021;-75
2024/03/04 03:20:41;;;;;;;7.07;4.20;;;4.10;96.10;;;;;;7582811;19;20007;-75
2024/03/04 03:23:13;;;;;;;8.20;3.80;;;4.10;96.10;;;;;;7578109;19;20025;-75
2024/03/04 03:25:46;;;;;;;5.57;3.67;;;4.00;96.50;;;;;;7584358;19;20881;-77
2024/03/04 03:28:18;;;;;;;6.22;3.90;;;3.90;96.80;;;;;;7583104;19;20064;-74
2024/03/04 03:30:51;;;;;;;8.27;3.45;;;3.80;97.30;;;;;;7589480;19;20024;-76
2024/03/04 03:33:23;;;;;;;7.17;3.50;;;3.70;97.80;;;;;;7590040;19;20014;-75
2024/03/04 03:35:56;;;;;;;7.00;3.60;;;3.60;98.20;;;;;;7585670;19;20089;-76
2024/03/04 03:38:28;;;;;;;7.57;3.37;;;3.60;98.50;;;;;;7567035;19;20622;-76
2024/03/04 03:41:03;;;;;;;4.97;3.05;;;3.70;99.00;;;;;;7541938;19;20048;-76
2024/03/04 03:43:35;;;;;;;7.90;3.25;;;3.70;98.80;;;;;;7572136;19;20014;-77
2024/03/04 03:46:08;;;;;;;7.93;3.78;;;3.80;98.80;;;;;;7571239;19;20022;-76
2024/03/04 03:48:43;;;;;;;5.32;3.25;;;3.80;98.90;;;;;;7572922;19;20643;-76
2024/03/04 03:51:15;;;;;;;5.55;3.60;;;3.90;99.00;;;;;;7574843;19;20797;-75
2024/03/04 03:53:47;;;;;;;12.70;3.50;;;3.80;99.10;;;;;;7547280;19;20456;-75
2024/03/04 03:56:20;;;;;;;5.72;3.13;;;3.70;99.90;;;;;;7559457;19;20018;-76
2024/03/04 03:58:52;;;;;;;7.72;3.35;;;3.70;99.90;;;;;;7565395;19;20414;-76
2024/03/04 04:01:24;;;;;;;9.63;3.65;;;3.70;99.90;;;;;;7589953;19;20047;-76
2024/03/04 04:03:57;;;;;;;5.63;3.35;;;3.70;99.90;;;;;;7589622;19;20010;-76
2024/03/04 04:06:30;;;;;;;6.45;3.03;;;3.70;99.90;;;;;;7592658;19;20921;-76
2024/03/04 04:09:02;;;;;;;8.10;3.03;;;3.70;99.90;;;;;;7592914;19;20570;-77
2024/03/04 04:11:34;;;;;;;6.03;3.28;;;3.60;99.90;;;;;;7602519;19;20070;-76
2024/03/04 04:14:07;;;;;;;9.05;3.75;;;3.50;99.90;;;;;;7608910;19;20027;-76
2024/03/04 04:16:39;;;;;;;4.03;2.85;;;3.50;99.90;;;;;;7593387;19;20010;-76
2024/03/04 04:19:11;;;;;;;6.68;3.40;;;3.40;99.90;;;;;;7607693;19;20018;-76
2024/03/04 04:21:44;;;;;;;7.00;3.55;;;3.40;99.90;;;;;;7632645;19;20038;-78
2024/03/04 04:24:17;;;;;;;4.33;2.73;;;3.40;99.90;;;;;;7609386;19;20014;-76
2024/03/04 04:26:50;;;;;;;5.20;2.53;;;3.40;99.90;;;;;;7629884;19;20047;-77
2024/03/04 04:29:22;;;;;;;6.05;3.05;;;3.60;99.90;;;;;;7626098;19;20898;-76
2024/03/04 04:31:55;;;;;;;5.97;2.65;;;3.70;99.90;;;;;;7601312;19;20025;-76
2024/03/04 04:34:27;;;;;;;5.72;2.80;;;3.70;99.90;;;;;;7603927;19;20056;-76
2024/03/04 04:36:59;;;;;;;6.20;2.90;;;3.80;99.90;;;;;;7598262;19;20037;-77
2024/03/04 04:39:32;;;;;;;9.15;3.03;;;3.90;99.90;;;;;;7597811;19;20018;-76
2024/03/04 04:42:05;;;;;;;10.70;3.37;;;3.90;99.90;;;;;;7602617;19;20022;-77
2024/03/04 04:44:38;;;;;;;8.82;3.40;;;3.90;99.90;;;;;;7604310;19;20283;-76
2024/03/04 04:47:10;;;;;;;16.83;3.38;;;3.90;99.90;;;;;;7600345;19;20233;-76
2024/03/04 04:49:42;;;;;;;9.55;3.08;;;4.00;99.90;;;;;;7592613;19;20014;-76
2024/03/04 04:52:15;;;;;;;15.20;3.13;;;4.10;99.90;;;;;;7557063;19;20041;-76
2024/03/04 04:54:48;;;;;;;6.78;2.90;;;4.40;99.90;;;;;;7603668;19;20336;-76
2024/03/04 04:57:20;;;;;;;5.55;2.80;;;4.40;99.90;;;;;;7604659;19;20019;-77
2024/03/04 04:59:53;;;;;;;6.57;2.95;;;4.60;99.90;;;;;;7597757;19;20034;-76
2024/03/04 05:02:25;;;;;;;9.00;3.95;;;4.70;99.90;;;;;;7587094;19;20878;-76
2024/03/04 05:04:57;;;;;;;6.30;3.00;;;4.90;99.90;;;;;;7601222;19;20020;-77
2024/03/04 05:07:30;;;;;;;8.88;3.28;;;5.00;99.90;;;;;;7615671;19;20031;-77
2024/03/04 05:10:03;;;;;;;9.43;3.30;;;5.10;99.80;;;;;;7622152;19;20047;-76
2024/03/04 05:12:36;;;;;;;5.38;3.10;;;5.10;99.80;;;;;;7614787;19;20018;-76
2024/03/04 05:15:09;;;;;;;7.10;3.40;;;5.10;99.90;;;;;;7617600;19;20014;-77
2024/03/04 05:17:41;;;;;;;8.90;3.63;;;5.20;99.90;;;;;;7614051;19;20030;-77
2024/03/04 05:20:15;;;;;;;6.95;3.28;;;5.20;99.90;;;;;;7622434;19;20018;-77
2024/03/04 05:22:48;;;;;;;7.30;3.20;;;5.30;99.90;;;;;;7627186;19;20018;-76
2024/03/04 05:25:21;;;;;;;7.65;3.42;;;5.30;99.90;;;;;;7619150;19;20011;-77
2024/03/04 05:27:53;;;;;;;11.77;4.20;;;5.20;99.90;;;;;;7620650;19;20965;-76
2024/03/04 05:30:26;;;;;;;11.48;4.28;;;5.20;99.90;;;;;;7619036;19;20015;-76
2024/03/04 05:32:58;;;;;;;9.83;5.37;;;5.30;99.90;;;;;;7622813;19;20019;-76
2024/03/04 05:35:30;;;;;;;10.38;3.97;;;5.40;99.90;;;;;;7619630;19;20393;-77
2024/03/04 05:38:03;;;;;;;6.20;3.75;;;5.40;99.90;;;;;;7629129;19;20646;-77
2024/03/04 05:40:35;;;;;;;8.00;5.10;;;5.40;99.90;;;;;;7624098;19;20002;-77
2024/03/04 05:43:08;;;;;;;12.05;5.68;;;5.40;99.90;;;;;;7626699;19;20006;-76
2024/03/04 05:45:40;;;;;;;15.68;6.35;;;5.40;99.90;;;;;;7620960;19;20025;-76
2024/03/04 05:48:13;;;;;;;11.15;6.53;;;5.30;99.90;;;;;;7623268;19;20595;-76
2024/03/04 05:50:46;;;;;;;16.87;8.30;;;5.30;99.90;;;;;;7623902;19;20023;-76
2024/03/04 05:53:20;;;;;;;14.52;7.85;;;5.40;99.90;;;;;;7621437;19;20022;-76
2024/03/04 05:55:52;;;;;;;17.38;8.85;;;5.40;99.90;;;;;;7613935;19;20060;-75
2024/03/04 05:58:26;;;;;;;15.00;7.85;;;5.40;99.90;;;;;;7626834;19;20026;-75
2024/03/04 06:00:58;;;;;;;17.98;8.77;;;5.40;99.90;;;;;;7612543;19;20028;-75
2024/03/04 06:03:31;;;;;;;16.95;8.20;;;5.40;99.90;;;;;;7609069;19;20006;-76
2024/03/04 06:06:04;;;;;;;17.90;8.90;;;5.50;99.90;;;;;;7616205;19;20039;-76
2024/03/04 06:08:37;;;;;;;19.58;9.88;;;5.40;99.90;;;;;;7609572;19;20365;-75
2024/03/04 06:11:09;;;;;;;18.38;9.73;;;5.30;99.90;;;;;;7617513;19;20014;-76
2024/03/04 06:13:42;;;;;;;17.42;9.80;;;5.30;99.90;;;;;;7612560;19;20006;-77
2024/03/04 06:16:15;;;;;;;18.25;10.50;;;5.30;99.90;;;;;;7609252;19;20026;-78
2024/03/04 06:18:47;;;;;;;24.33;11.95;;;5.50;99.90;;;;;;7616070;19;20014;-78
2024/03/04 06:21:20;;;;;;;23.60;12.20;;;5.60;99.90;;;;;;7609356;19;21547;-77
2024/03/04 06:23:53;;;;;;;24.43;13.53;;;5.60;99.90;;;;;;7615022;19;21901;-78
2024/03/04 06:26:25;;;;;;;22.90;12.83;;;5.60;99.90;;;;;;7634174;19;20018;-77
2024/03/04 06:28:57;;;;;;;27.83;13.98;;;5.60;99.90;;;;;;7630951;19;20042;-76
2024/03/04 06:31:30;;;;;;;27.02;14.82;;;5.70;99.90;;;;;;7629915;19;20042;-77
2024/03/04 06:34:03;;;;;;;31.90;16.00;;;5.80;99.90;;;;;;7612818;19;20015;-76
2024/03/04 06:36:50;;;;;;;32.13;17.08;;;5.70;99.90;;;;;;7614030;19;20018;-76
2024/03/04 06:39:23;;;;;;;28.63;15.80;;;5.90;99.90;;;;;;7626876;19;21255;-77
2024/03/04 06:41:55;;;;;;;32.80;16.57;;;5.90;99.90;;;;;;7617786;19;20030;-77
2024/03/04 06:44:28;;;;;;;39.83;18.55;;;5.90;99.90;;;;;;7621090;19;20025;-76
2024/03/04 06:47:00;;;;;;;32.42;17.77;;;5.90;99.90;;;;;;7612750;19;20011;-77
2024/03/04 06:49:33;;;;;;;33.27;17.10;;;5.90;99.90;;;;;;7624758;19;20130;-77
2024/03/04 06:52:06;;;;;;;31.43;16.33;;;6.00;99.90;;;;;;7628646;19;20010;-76
2024/03/04 06:54:38;;;;;;;35.33;18.52;;;6.10;99.90;;;;;;7626258;19;20716;-76
2024/03/04 06:57:11;;;;;;;32.40;17.27;;;6.20;99.90;;;;;;7632262;19;20018;-76
2024/03/04 06:59:44;;;;;;;33.65;17.95;;;6.30;99.90;;;;;;7637022;19;20027;-75
2024/03/04 07:02:16;;;;;;;37.08;19.80;;;6.30;99.90;;;;;;7637165;19;20014;-76
2024/03/04 07:04:48;;;;;;;30.88;17.20;;;6.40;99.90;;;;;;7645974;19;20018;-75
2024/03/04 07:07:21;;;;;;;35.22;18.08;;;6.50;99.90;;;;;;7659202;19;20079;-75
2024/03/04 07:09:54;;;;;;;35.88;18.40;;;6.50;99.90;;;;;;7630566;19;20015;-76
2024/03/04 07:12:27;;;;;;;35.85;18.15;;;6.60;99.90;;;;;;7626448;19;20018;-75
2024/03/04 07:15:00;;;;;;;41.95;19.67;;;6.60;99.90;;;;;;7633452;19;20035;-77
2024/03/04 07:17:33;;;;;;;35.28;19.95;;;6.70;99.90;;;;;;7633566;19;20436;-76
2024/03/04 07:20:09;;;;;;;36.35;19.88;;;6.70;99.90;;;;;;7626108;19;20025;-77
2024/03/04 07:22:41;;;;;;;41.05;21.58;;;6.80;99.90;;;;;;7627515;19;20054;-76
2024/03/04 07:25:14;;;;;;;40.55;20.95;;;6.90;99.90;;;;;;7623778;19;20014;-76
2024/03/04 07:27:47;;;;;;;42.65;21.13;;;6.90;99.90;;;;;;7633727;19;20646;-77
2024/03/04 07:30:19;;;;;;;39.33;21.97;;;6.90;99.90;;;;;;7626886;19;20015;-75
2024/03/04 07:32:52;;;;;;;40.13;21.75;;;7.00;99.90;;;;;;7629524;19;20041;-76
2024/03/04 07:35:25;;;;;;;48.58;22.90;;;7.00;99.90;;;;;;7626927;19;20029;-76
2024/03/04 07:37:58;;;;;;;40.00;21.48;;;7.20;99.90;;;;;;7628861;19;20017;-76
2024/03/04 07:40:31;;;;;;;42.85;23.45;;;7.30;99.90;;;;;;7632821;19;20018;-77
2024/03/04 07:43:04;;;;;;;49.28;24.30;;;7.30;99.90;;;;;;7632490;19;20089;-77
2024/03/04 07:45:36;;;;;;;42.75;23.30;;;7.30;99.90;;;;;;7630303;19;20034;-77
2024/03/04 07:48:08;;;;;;;47.45;24.48;;;7.40;99.90;;;;;;7627249;19;20643;-77
2024/03/04 07:50:41;;;;;;;45.42;24.52;;;7.50;99.90;;;;;;7629159;19;20010;-76
2024/03/04 07:53:13;;;;;;;46.50;23.95;;;7.60;99.90;;;;;;7627413;19;20046;-76
2024/03/04 07:55:46;;;;;;;53.80;25.30;;;7.60;99.90;;;;;;7625012;19;20039;-77
2024/03/04 07:58:18;;;;;;;48.72;25.10;;;7.70;99.90;;;;;;7623942;19;20485;-77
2024/03/04 08:00:51;;;;;;;50.72;25.00;;;7.70;99.90;;;;;;7626420;19;20031;-76
2024/03/04 08:03:24;;;;;;;45.55;23.60;;;7.70;99.90;;;;;;7624608;19;21099;-77
2024/03/04 08:05:56;;;;;;;46.90;25.93;;;7.80;99.90;;;;;;7621723;19;20108;-77
2024/03/04 08:08:28;;;;;;;56.90;29.20;;;7.80;99.90;;;;;;7625579;19;20110;-76
2024/03/04 08:11:02;;;;;;;58.05;28.15;;;7.90;99.90;;;;;;7626472;19;20014;-78
2024/03/04 08:13:34;;;;;;;;;;;7.90;99.90;;;;;;7630685;19;20082;-76
2024/03/04 08:16:07;;;;;;;49.85;26.80;;;7.90;99.90;;;;;;7614708;19;19943;-76
2024/03/04 08:18:39;;;;;;;55.20;28.88;;;8.00;99.90;;;;;;7621683;19;20010;-76
2024/03/04 08:21:15;;;;;;;54.58;28.85;;;7.90;99.90;;;;;;7617110;19;20036;-75
2024/03/04 08:23:47;;;;;;;54.80;29.73;;;8.00;99.90;;;;;;7613176;19;20086;-75
2024/03/04 08:26:21;;;;;;;59.13;28.93;;;8.00;99.90;;;;;;7616039;19;20022;-76
2024/03/04 08:28:58;;;;;;;;;;;8.10;99.90;;;;;;7612895;19;20026;-76
2024/03/04 08:31:31;;;;;;;56.15;28.27;;;8.10;99.90;;;;;;7612489;19;19919;-78
2024/03/04 08:34:06;;;;;;;55.70;29.52;;;8.20;99.90;;;;;;7613125;19;20589;-75
2024/03/04 08:36:39;;;;;;;57.85;29.13;;;8.20;99.90;;;;;;7610726;19;20117;-76
2024/03/04 08:39:11;;;;;;;57.05;29.42;;;8.30;99.90;;;;;;7611479;19;20054;-76
2024/03/04 08:41:48;;;;;;;55.80;29.27;;;8.30;99.90;;;;;;7617369;19;20023;-76
2024/03/04 08:44:20;;;;;;;57.13;31.00;;;8.30;99.90;;;;;;7611086;19;20098;-76
2024/03/04 08:46:52;;;;;;;55.50;29.70;;;8.40;99.90;;;;;;7615313;19;20025;-78
2024/03/04 08:49:25;;;;;;;57.70;28.88;;;8.40;99.90;;;;;;7608461;19;20030;-76
2024/03/04 08:51:57;;;;;;;57.90;30.33;;;8.40;99.90;;;;;;7613760;19;20886;-76
2024/03/04 08:54:31;;;;;;;60.28;30.52;;;8.40;99.90;;;;;;7610491;19;20053;-77
2024/03/04 08:57:05;;;;;;;60.95;29.70;;;8.40;99.90;;;;;;7613137;19;20011;-75
2024/03/04 08:59:38;;;;;;;59.47;29.52;;;8.50;99.90;;;;;;7613465;19;20018;-76
2024/03/04 09:02:10;;;;;;;58.78;30.45;;;8.40;99.90;;;;;;7613453;19;20028;-75
2024/03/04 09:04:47;;;;;;;55.60;31.13;;;8.40;99.90;;;;;;7611876;19;20014;-79
2024/03/04 09:07:20;;;;;;;58.63;28.70;;;8.50;99.90;;;;;;7618487;19;20030;-76
2024/03/04 09:09:53;;;;;;;55.20;30.08;;;8.50;99.90;;;;;;7619431;19;20993;-77
2024/03/04 09:12:27;;;;;;;55.75;29.05;;;8.50;99.90;;;;;;7622372;19;20018;-77
2024/03/04 09:14:59;;;;;;;52.10;28.40;;;8.60;99.90;;;;;;7620166;19;20110;-76
2024/03/04 09:17:31;;;;;;;52.10;28.30;;;8.60;99.90;;;;;;7620614;19;20015;-76
2024/03/04 09:20:06;;;;;;;55.47;28.45;;;8.70;99.90;;;;;;7621894;19;20014;-76
2024/03/04 09:22:40;;;;;;;57.97;29.67;;;8.70;99.90;;;;;;7622642;19;20110;-76
2024/03/04 09:25:13;;;;;;;49.97;27.10;;;8.70;99.90;;;;;;7613266;19;20010;-76
2024/03/04 09:27:45;;;;;;;54.15;28.65;;;8.70;99.90;;;;;;7612222;19;20018;-76
2024/03/04 09:30:19;;;;;;;52.20;26.50;;;8.70;99.90;;;;;;7615006;19;20032;-77
2024/03/04 09:32:51;;;;;;;54.20;27.67;;;8.80;99.90;;;;;;7620421;19;20017;-77
2024/03/04 09:35:24;;;;;;;52.90;27.93;;;8.70;99.90;;;;;;7617008;19;20026;-77
2024/03/04 09:37:56;;;;;;;52.33;27.77;;;8.70;99.90;;;;;;7619634;19;20019;-77
2024/03/04 09:40:29;;;;;;;57.03;30.65;;;8.70;99.90;;;;;;7618165;19;20010;-76
2024/03/04 09:43:02;;;;;;;45.75;26.17;;;8.70;99.90;;;;;;7608746;19;21074;-75
2024/03/04 09:45:36;;;;;;;55.88;28.40;;;8.70;99.90;;;;;;7610431;19;20036;-75
2024/03/04 09:48:11;;;;;;;58.65;29.90;;;8.80;99.90;;;;;;7610768;19;20019;-74
2024/03/04 09:50:46;;;;;;;55.80;28.63;;;8.80;99.90;;;;;;7610147;19;20046;-75
2024/03/04 09:53:21;;;;;;;53.60;27.23;;;8.70;99.90;;;;;;7608821;19;20034;-77
2024/03/04 09:55:53;;;;;;;49.50;27.67;;;8.80;99.90;;;;;;7608578;19;20017;-77
2024/03/04 09:58:26;;;;;;;49.30;27.85;;;8.80;99.90;;;;;;7611768;19;20538;-78
2024/03/04 10:01:00;;;;;;;53.20;27.50;;;8.80;99.90;;;;;;7609010;19;20569;-76
2024/03/04 10:03:33;;;;;;;55.25;27.90;;;8.80;99.90;;;;;;7609325;19;20018;-76
2024/03/04 10:06:06;;;;;;;54.53;27.65;;;8.80;99.90;;;;;;7606949;19;20019;-75
2024/03/04 10:08:38;;;;;;;52.80;28.00;;;9.00;99.90;;;;;;7607605;19;20019;-76
2024/03/04 10:11:11;;;;;;;52.95;26.02;;;8.90;99.90;;;;;;7606877;19;20037;-75
2024/03/04 10:13:43;;;;;;;53.42;26.67;;;9.00;99.90;;;;;;7613143;19;20552;-75
2024/03/04 10:16:16;;;;;;;50.35;25.77;;;9.00;99.90;;;;;;7604890;19;20032;-76
2024/03/04 10:19:00;;;;;;;49.25;27.00;;;9.10;99.90;;;;;;7606163;19;20635;-76
2024/03/04 10:21:35;;;;;;;54.42;27.70;;;9.20;99.90;;;;;;7609537;19;20058;-76
2024/03/04 10:24:10;;;;;;;54.45;27.50;;;9.20;99.90;;;;;;7596648;19;20022;-77
2024/03/04 10:26:45;;;;;;;51.13;27.58;;;9.20;99.90;;;;;;7601474;19;20014;-76
2024/03/04 10:29:21;;;;;;;48.92;27.25;;;9.20;99.90;;;;;;7568906;19;20022;-76
2024/03/04 10:31:54;;;;;;;52.55;26.92;;;9.10;99.90;;;;;;7611195;19;20011;-76
2024/03/04 10:34:27;;;;;;;50.38;25.42;;;9.10;99.90;;;;;;7606555;19;20015;-75
2024/03/04 10:37:01;;;;;;;49.97;26.38;;;9.10;99.90;;;;;;7607457;19;20655;-76
2024/03/04 10:39:36;;;;;;;56.63;26.67;;;9.10;99.90;;;;;;7601538;19;20720;-76
2024/03/04 10:42:12;;;;;;;47.13;26.05;;;9.20;99.90;;;;;;7607260;19;20094;-76
2024/03/04 10:44:46;;;;;;;48.40;25.27;;;9.10;99.90;;;;;;7611365;19;20014;-76
2024/03/04 10:47:22;;;;;;;51.17;26.98;;;9.10;99.90;;;;;;7604927;19;20046;-77
2024/03/04 10:49:55;;;;;;;51.00;26.77;;;9.10;99.90;;;;;;7610439;19;20014;-76
2024/03/04 10:52:28;;;;;;;49.05;25.98;;;9.10;99.90;;;;;;7607055;19;20051;-75
2024/03/04 10:55:00;;;;;;;53.92;27.60;;;9.10;99.90;;;;;;7607755;19;20134;-76
2024/03/04 10:57:34;;;;;;;51.50;26.55;;;9.10;99.90;;;;;;7606522;19;20026;-75
2024/03/04 11:00:17;;;;;;;50.45;26.98;;;9.10;99.90;;;;;;7608879;19;20022;-75
2024/03/04 11:02:59;;;;;;;53.30;26.98;;;9.00;99.90;;;;;;7611677;19;20019;-76
2024/03/04 11:05:34;;;;;;;51.75;28.63;;;9.10;99.90;;;;;;7605595;19;20477;-76
2024/03/04 11:08:18;;;;;;;51.05;26.67;;;9.10;99.90;;;;;;7591258;19;20500;-76
2024/03/04 11:10:55;;;;;;;53.65;27.48;;;9.10;99.90;;;;;;7607938;19;20014;-76
2024/03/04 11:13:35;;;;;;;54.35;27.63;;;9.00;99.90;;;;;;7606755;19;20416;-76
2024/03/04 11:16:16;;;;;;;49.78;26.50;;;9.10;99.90;;;;;;7605425;19;20045;-76
2024/03/04 11:19:13;;;;;;;48.60;25.20;;;9.10;99.90;;;;;;7602232;19;20017;-76
2024/03/04 11:21:46;;;;;;;51.38;28.52;;;9.20;99.90;;;;;;7603916;19;20031;-77
2024/03/04 11:24:20;;;;;;;48.80;28.02;;;9.20;99.90;;;;;;7599343;19;20050;-76
2024/03/04 11:26:53;;;;;;;49.08;25.73;;;9.20;99.90;;;;;;7609780;19;20028;-76
2024/03/04 11:29:26;;;;;;;51.57;27.03;;;9.20;99.90;;;;;;7588810;19;20014;-76
2024/03/04 11:31:59;;;;;;;47.63;26.23;;;9.30;99.90;;;;;;7607999;19;20366;-76
2024/03/04 11:34:55;;;;;;;52.60;27.08;;;9.20;99.90;;;;;;7599728;19;20520;-76
2024/03/04 11:37:29;;;;;;;53.00;28.02;;;9.30;99.90;;;;;;7552676;19;20967;-77
2024/03/04 11:40:03;;;;;;;52.08;28.35;;;9.30;99.90;;;;;;7548973;19;20512;-76
2024/03/04 11:42:38;;;;;;;48.95;27.70;;;9.20;99.90;;;;;;7574411;19;20018;-77
2024/03/04 11:45:18;;;;;;;48.25;26.20;;;9.30;99.90;;;;;;7600505;19;20590;-76
2024/03/04 11:47:54;;;;;;;52.67;25.98;;;9.30;99.90;;;;;;7607383;19;20039;-76
2024/03/04 11:50:48;;;;;;;56.28;26.63;;;9.30;99.90;;;;;;7600712;19;20619;-77
2024/03/04 11:53:27;;;;;;;50.63;26.80;;;9.30;99.90;;;;;;7609544;19;20036;-77
2024/03/04 11:55:59;;;;;;;45.38;23.58;;;9.30;99.90;;;;;;7583567;19;20022;-76
2024/03/04 11:58:33;;;;;;;43.88;24.48;;;9.30;99.90;;;;;;7583664;19;21120;-75
2024/03/04 12:01:05;;;;;;;44.10;23.77;;;9.40;99.90;;;;;;7591713;19;20099;-76
2024/03/04 12:03:53;;;;;;;42.67;22.63;;;9.40;99.90;;;;;;7595103;19;20014;-76
2024/03/04 12:06:26;;;;;;;38.17;22.10;;;9.50;99.90;;;;;;7592281;19;20026;-76
2024/03/04 12:09:00;;;;;;;;;;;9.70;99.90;;;;;;7588599;19;20018;-76
2024/03/04 12:11:36;;;;;;;42.90;22.98;;;9.50;99.90;;;;;;7584917;19;19930;-76
2024/03/04 12:14:08;;;;;;;41.83;22.27;;;9.60;99.90;;;;;;7587042;19;20023;-76
2024/03/04 12:16:41;;;;;;;45.65;21.90;;;9.60;99.90;;;;;;7556163;19;20022;-76
2024/03/04 12:19:13;;;;;;;42.30;21.63;;;9.70;99.90;;;;;;7552226;19;20017;-78
2024/03/04 12:21:46;;;;;;;32.97;19.47;;;9.70;99.90;;;;;;7575834;19;20048;-76
2024/03/04 12:24:21;;;;;;;42.50;21.87;;;9.70;99.90;;;;;;7577049;19;20285;-76
2024/03/04 12:26:55;;;;;;;36.90;20.80;;;9.90;99.90;;;;;;7583738;19;20271;-76
2024/03/04 12:29:28;;;;;;;44.63;20.88;;;9.90;99.90;;;;;;7568989;19;20015;-77
2024/03/04 12:32:01;;;;;;;35.92;20.30;;;9.90;99.90;;;;;;7586177;19;20022;-77
2024/03/04 12:34:34;;;;;;;39.25;20.55;;;9.70;99.90;;;;;;7586735;19;20943;-77
2024/03/04 12:37:07;;;;;;;39.25;20.58;;;9.70;99.90;;;;;;7584233;19;20424;-77
2024/03/04 12:39:40;;;;;;;40.78;21.38;;;9.70;99.90;;;;;;7568397;19;20014;-77
2024/03/04 12:42:13;;;;;;;40.55;20.70;;;9.80;99.90;;;;;;7580332;19;20035;-77
2024/03/04 12:44:46;;;;;;;36.53;20.05;;;9.80;99.90;;;;;;7582759;19;20018;-77
2024/03/04 12:47:18;;;;;;;37.30;21.50;;;9.80;99.90;;;;;;7578548;19;20019;-77
2024/03/04 12:49:51;;;;;;;38.53;21.58;;;9.70;99.90;;;;;;7585702;19;20287;-77
2024/03/04 12:52:24;;;;;;;38.72;20.23;;;9.70;99.90;;;;;;7587939;19;20018;-77
2024/03/04 12:54:57;;;;;;;36.35;19.25;;;9.60;99.90;;;;;;7564731;19;20022;-77
2024/03/04 12:57:29;;;;;;;40.88;21.27;;;9.60;99.90;;;;;;7568236;19;20042;-76
2024/03/04 13:00:02;;;;;;;42.28;22.88;;;9.60;99.90;;;;;;7484997;19;20003;-76
2024/03/04 13:02:36;;;;;;;43.47;22.67;;;9.60;99.90;;;;;;7526132;19;20018;-77
2024/03/04 13:05:10;;;;;;;36.65;19.00;;;9.60;99.90;;;;;;7562076;19;20019;-76
2024/03/04 13:07:44;;;;;;;37.65;22.13;;;9.60;99.90;;;;;;7587345;19;20056;-76
2024/03/04 13:10:16;;;;;;;45.08;21.25;;;9.60;99.90;;;;;;7573794;19;20026;-77
2024/03/04 13:12:49;;;;;;;38.08;20.42;;;9.60;99.90;;;;;;7575009;19;21267;-77
2024/03/04 13:15:21;;;;;;;39.58;21.10;;;9.50;99.90;;;;;;7583095;19;20014;-76
2024/03/04 13:17:54;;;;;;;39.60;20.70;;;9.50;99.90;;;;;;7577375;19;20097;-75
2024/03/04 13:20:27;;;;;;;38.67;20.33;;;9.50;99.90;;;;;;7577378;19;20010;-75
2024/03/04 13:22:59;;;;;;;36.53;18.83;;;9.50;99.90;;;;;;7587212;19;21677;-76
2024/03/04 13:25:32;;;;;;;38.20;18.50;;;9.60;99.90;;;;;;7583039;19;20018;-76
2024/03/04 13:28:04;;;;;;;41.23;19.07;;;9.60;99.90;;;;;;7596803;19;20018;-76
2024/03/04 13:30:37;;;;;;;36.80;18.55;;;9.60;99.90;;;;;;7562394;19;20987;-75
2024/03/04 13:33:09;;;;;;;40.08;19.77;;;9.60;99.90;;;;;;7587615;19;20015;-75
2024/03/04 13:35:42;;;;;;;37.88;19.60;;;9.60;99.90;;;;;;7580444;19;20020;-74